Time;durP1;ratioP1;P1;durP2;ratioP2;P2;SDS_P1;SDS_P2;PMS_P1;PMS_P2;Temp;Humidity;BMP_temperature;BMP_pressure;BME280_temperature;BME280_humidity;BME280_pressure;Samples;Min_cycle;Max_cycle;Signal;HPM_P1;HPM_P2
2022/03/12 00:00:20;;;;;;;25.20;13.53;;;;;;;-2.72;74.98;95550.53;5026589;28;21698;-82
2022/03/12 00:02:51;;;;;;;23.80;12.60;;;;;;;-2.61;74.94;95553.06;5025480;28;20219;-80
2022/03/12 00:05:19;;;;;;;22.87;13.07;;;;;;;-2.47;74.15;95557.91;5028836;28;20202;-80
2022/03/12 00:07:51;;;;;;;22.33;13.17;;;;;;;-2.38;74.29;95553.84;5016970;28;20328;-79
2022/03/12 00:10:22;;;;;;;26.30;13.83;;;;;;;-2.19;73.34;95555.81;5021743;28;20202;-79
2022/03/12 00:12:51;;;;;;;22.50;12.73;;;;;;;-2.23;72.49;95545.06;5027946;28;20298;-79
2022/03/12 00:15:19;;;;;;;21.17;12.10;;;;;;;-2.03;72.18;95559.59;5027494;28;20290;-80
2022/03/12 00:17:47;;;;;;;21.60;12.50;;;;;;;-1.89;71.91;95566.16;5029162;28;20312;-81
2022/03/12 00:20:18;;;;;;;21.90;13.10;;;;;;;-1.88;72.16;95571.13;5025250;28;20290;-81
2022/03/12 00:22:50;;;;;;;29.73;13.07;;;;;;;-2.15;74.37;95564.81;5019013;28;20222;-82
2022/03/12 00:25:24;;;;;;;22.57;13.07;;;;;;;-2.28;78.95;95560.66;5025595;28;20206;-86
2022/03/12 00:27:52;;;;;;;26.53;13.63;;;;;;;-2.21;80.16;95563.53;5017495;28;20238;-82
2022/03/12 00:30:22;;;;;;;21.57;13.27;;;;;;;-2.14;79.83;95561.34;5026672;28;20199;-83
2022/03/12 00:32:53;;;;;;;31.67;15.37;;;;;;;-2.23;81.96;95556.97;5028341;28;20202;-78
2022/03/12 00:35:21;;;;;;;28.10;14.20;;;;;;;-2.04;82.41;95565.59;5025716;28;20191;-78
2022/03/12 00:37:49;;;;;;;28.73;15.17;;;;;;;-1.91;82.76;95576.47;5018267;28;20268;-78
2022/03/12 00:40:22;;;;;;;29.60;15.47;;;;;;;-1.91;84.47;95563.72;5019212;28;20204;-78
2022/03/12 00:42:51;;;;;;;30.90;16.67;;;;;;;-1.84;85.04;95566.59;5024127;28;20266;-80
2022/03/12 00:45:28;;;;;;;32.23;16.97;;;;;;;-1.88;86.62;95560.94;5020459;28;20274;-79
2022/03/12 00:47:57;;;;;;;30.00;16.57;;;;;;;-1.78;87.89;95563.56;5024062;28;20286;-79
2022/03/12 00:50:25;;;;;;;29.57;16.73;;;;;;;-1.68;88.65;95559.38;5025403;28;20597;-79
2022/03/12 00:52:53;;;;;;;27.17;15.53;;;;;;;-1.67;89.54;95560.97;5025123;28;20282;-79
2022/03/12 00:55:24;;;;;;;24.13;12.80;;;;;;;-1.75;91.39;95558.22;5026297;28;20246;-79
2022/03/12 00:57:52;;;;;;;22.03;13.27;;;;;;;-1.82;92.09;95569.84;5025021;28;20203;-79
2022/03/12 01:00:23;;;;;;;21.20;12.17;;;;;;;-2.02;94.29;95556.09;5022841;28;20211;-78
2022/03/12 01:02:51;;;;;;;20.83;10.43;;;;;;;-1.99;94.83;95562.72;5019443;28;20206;-78
2022/03/12 01:05:22;;;;;;;17.53;10.30;;;;;;;-2.01;95.62;95570.44;5020662;28;20253;-80
2022/03/12 01:07:51;;;;;;;21.17;11.10;;;;;;;-2.06;97.10;95569.19;5025560;28;20364;-79
2022/03/12 01:10:19;;;;;;;15.80;10.00;;;;;;;-2.20;98.00;95564.38;5029106;28;20223;-79
2022/03/12 01:12:49;;;;;;;15.63;9.20;;;;;;;-2.14;97.12;95571.53;5021966;28;20202;-79
2022/03/12 01:15:17;;;;;;;16.30;9.40;;;;;;;-2.23;97.55;95572.22;5023155;28;20201;-79
2022/03/12 01:17:47;;;;;;;12.20;8.00;;;;;;;-2.14;96.95;95564.72;5019545;28;20206;-78
2022/03/12 01:20:14;;;;;;;12.67;7.80;;;;;;;-2.14;97.05;95574.06;5021132;28;20202;-78
2022/03/12 01:22:43;;;;;;;15.53;8.70;;;;;;;-2.13;97.33;95573.13;5016558;28;20219;-78
2022/03/12 01:25:11;;;;;;;14.20;8.30;;;;;;;-2.11;97.82;95581.47;5026632;28;20278;-79
2022/03/12 01:27:40;;;;;;;12.17;7.40;;;;;;;-2.11;97.37;95577.19;5024696;28;20214;-79
2022/03/12 01:30:13;;;;;;;12.63;7.67;;;;;;;-2.11;96.69;95574.66;5022305;28;20201;-78
2022/03/12 01:32:41;;;;;;;12.97;7.40;;;;;;;-2.17;95.58;95566.66;5021650;28;20555;-77
2022/03/12 01:35:10;;;;;;;11.87;7.10;;;;;;;-2.14;95.34;95574.88;5019898;28;20199;-77
2022/03/12 01:37:39;;;;;;;10.57;6.53;;;;;;;-2.21;94.83;95566.09;5023128;28;20204;-77
2022/03/12 01:40:08;;;;;;;10.50;6.23;;;;;;;-2.60;95.44;95569.94;5019517;28;20225;-77
2022/03/12 01:42:37;;;;;;;11.77;6.50;;;;;;;-2.88;95.79;95565.28;5021442;28;20317;-77
2022/03/12 01:45:09;;;;;;;10.30;6.37;;;;;;;-2.89;99.98;95561.16;5024269;28;20202;-77
2022/03/12 01:47:40;;;;;;;10.50;6.40;;;;;;;-2.80;100.00;95559.66;5020812;28;20217;-79
2022/03/12 01:50:10;;;;;;;11.73;6.70;;;;;;;-2.81;99.85;95546.13;5022395;28;20199;-78
2022/03/12 01:52:39;;;;;;;10.43;6.20;;;;;;;-2.69;97.32;95565.56;5024206;28;20202;-79
2022/03/12 01:55:08;;;;;;;12.83;7.00;;;;;;;-2.64;97.50;95571.09;5021862;28;20746;-79
2022/03/12 01:57:37;;;;;;;11.47;6.70;;;;;;;-2.54;97.47;95563.59;5023983;28;20199;-78
2022/03/12 02:00:06;;;;;;;12.03;7.33;;;;;;;-2.53;96.83;95567.72;5025540;28;20306;-79
2022/03/12 02:02:34;;;;;;;11.87;6.90;;;;;;;-2.51;97.18;95564.16;5020242;28;20197;-79
2022/03/12 02:05:04;;;;;;;13.80;7.23;;;;;;;-2.78;98.75;95560.34;5013945;28;20230;-79
2022/03/12 02:07:32;;;;;;;13.13;7.80;;;;;;;-2.68;99.24;95553.63;5018646;28;20230;-80
2022/03/12 02:10:01;;;;;;;11.93;7.47;;;;;;;-2.79;100.00;95558.72;5022743;28;20199;-79
2022/03/12 02:12:30;;;;;;;14.17;8.37;;;;;;;-2.80;100.00;95555.38;5020550;28;20192;-79
2022/03/12 02:15:01;;;;;;;15.27;7.93;;;;;;;-2.86;100.00;95550.75;5021218;28;21327;-79
2022/03/12 02:17:30;;;;;;;12.17;8.00;;;;;;;-2.94;100.00;95553.84;5025556;28;20202;-80
2022/03/12 02:19:58;;;;;;;12.77;7.43;;;;;;;-2.87;100.00;95552.47;5024246;28;20199;-79
2022/03/12 02:22:28;;;;;;;11.77;7.50;;;;;;;-2.81;100.00;95565.66;5031886;28;20586;-80
2022/03/12 02:24:57;;;;;;;14.07;8.27;;;;;;;-2.74;100.00;95567.59;5022755;28;20209;-80
2022/03/12 02:27:26;;;;;;;14.83;7.97;;;;;;;-2.72;100.00;95570.88;5021620;28;20659;-81
2022/03/12 02:29:57;;;;;;;11.10;7.50;;;;;;;-2.68;100.00;95572.22;5023922;28;20294;-79
2022/03/12 02:32:24;;;;;;;14.67;8.40;;;;;;;-2.56;100.00;95566.22;5014691;28;20249;-79
2022/03/12 02:34:53;;;;;;;12.13;7.67;;;;;;;-2.53;100.00;95568.53;5021353;28;20226;-80
2022/03/12 02:37:30;;;;;;;13.13;7.90;;;;;;;-2.45;99.36;95560.31;5017063;28;20226;-81
2022/03/12 02:40:01;;;;;;;13.63;8.30;;;;;;;-2.45;98.94;95568.78;5024752;28;20635;-79
2022/03/12 02:42:31;;;;;;;15.73;8.17;;;;;;;-2.41;98.23;95572.72;5016877;28;20187;-79
2022/03/12 02:45:00;;;;;;;13.00;8.20;;;;;;;-2.40;97.22;95571.78;5015897;28;20215;-79
2022/03/12 02:47:30;;;;;;;14.33;8.33;;;;;;;-2.47;96.28;95578.25;5024662;28;20203;-78
2022/03/12 02:49:59;;;;;;;12.30;7.77;;;;;;;-2.46;96.37;95582.44;5023102;28;20206;-79
2022/03/12 02:52:30;;;;;;;13.13;7.73;;;;;;;-2.43;96.67;95578.84;5022262;28;20211;-79
2022/03/12 02:55:01;;;;;;;13.83;8.17;;;;;;;-2.43;96.28;95584.75;5023132;28;20315;-79
2022/03/12 02:57:30;;;;;;;14.20;8.40;;;;;;;-2.57;95.63;95586.72;5021077;28;20191;-79
2022/03/12 03:00:04;;;;;;;15.67;9.30;;;;;;;-2.64;96.71;95588.09;5014295;28;21568;-78
2022/03/12 03:02:39;;;;;;;19.10;9.77;;;;;;;-2.91;96.27;95581.59;5018395;28;20274;-78
2022/03/12 03:05:13;;;;;;;19.40;10.73;;;;;;;-3.06;97.09;95584.47;5020008;28;20209;-78
2022/03/12 03:07:45;;;;;;;22.87;12.10;;;;;;;-3.10;100.00;95593.22;5017663;28;20195;-79
2022/03/12 03:10:31;;;;;;;23.93;13.03;;;;;;;-3.05;100.00;95593.69;5022048;28;20672;-79
2022/03/12 03:13:01;;;;;;;20.37;11.93;;;;;;;-3.03;100.00;95597.72;5022344;28;20221;-79
2022/03/12 03:15:30;;;;;;;20.43;12.47;;;;;;;-3.08;100.00;95588.81;5023840;28;20205;-80
2022/03/12 03:18:10;;;;;;;26.67;13.70;;;;;;;-2.94;100.00;95599.59;5023671;28;20310;-79
2022/03/12 03:20:37;;;;;;;27.47;14.00;;;;;;;-2.93;100.00;95602.97;5018804;28;20211;-78
2022/03/12 03:23:08;;;;;;;24.87;14.13;;;;;;;-2.79;99.90;95601.94;5018820;28;20655;-78
2022/03/12 03:25:57;;;;;;;24.23;13.57;;;;;;;-2.87;99.55;95607.59;5016765;28;20195;-79
2022/03/12 03:28:51;;;;;;;27.00;14.37;;;;;;;-2.95;99.45;95602.28;5016477;28;20294;-78
2022/03/12 03:31:20;;;;;;;27.47;14.40;;;;;;;-2.93;100.00;95615.66;5023009;28;20202;-80
2022/03/12 03:33:49;;;;;;;26.17;13.73;;;;;;;-2.88;100.00;95599.16;5024263;28;20602;-78
2022/03/12 03:36:18;;;;;;;28.30;15.20;;;;;;;-2.71;100.00;95602.19;5021538;28;20252;-78
2022/03/12 03:38:47;;;;;;;27.70;14.93;;;;;;;-2.60;99.84;95599.66;5019693;28;20569;-79
2022/03/12 03:41:18;;;;;;;28.37;15.00;;;;;;;-2.57;98.74;95607.84;5033133;28;20194;-79
2022/03/12 03:43:47;;;;;;;44.43;17.80;;;;;;;-2.76;98.27;95605.06;5018997;28;20587;-79
2022/03/12 03:46:19;;;;;;;46.33;18.77;;;;;;;-2.81;98.26;95609.69;5022077;28;20207;-80
2022/03/12 03:48:50;;;;;;;35.87;17.93;;;;;;;-2.76;98.30;95617.78;5022399;28;20744;-78
2022/03/12 03:51:20;;;;;;;34.37;17.33;;;;;;;-2.70;98.63;95619.06;5026538;28;20191;-79
2022/03/12 03:53:48;;;;;;;37.47;17.93;;;;;;;-2.75;97.75;95613.50;5031822;28;20199;-79
2022/03/12 03:56:20;;;;;;;34.80;19.00;;;;;;;-2.98;98.69;95621.09;5028556;28;20222;-79
2022/03/12 03:58:49;;;;;;;34.57;18.70;;;;;;;-2.92;99.81;95622.38;5031422;28;20199;-79
2022/03/12 04:01:22;;;;;;;32.43;16.80;;;;;;;-2.79;98.95;95604.47;5033588;28;20598;-79
2022/03/12 04:03:51;;;;;;;31.20;16.30;;;;;;;-2.77;97.36;95615.38;5023086;28;20352;-79
2022/03/12 04:06:22;;;;;;;27.33;14.50;;;;;;;-3.01;98.16;95623.88;5016997;28;20291;-79
2022/03/12 04:08:50;;;;;;;26.00;15.07;;;;;;;-3.10;98.42;95621.19;5018493;28;20195;-79
2022/03/12 04:11:20;;;;;;;31.23;15.53;;;;;;;-3.20;98.97;95612.63;5036918;28;20229;-79
2022/03/12 04:13:49;;;;;;;26.03;14.60;;;;;;;-3.20;98.89;95615.94;5028090;28;20202;-78
2022/03/12 04:16:18;;;;;;;29.00;13.70;;;;;;;-3.19;99.07;95624.38;5026962;28;20203;-79
2022/03/12 04:18:48;;;;;;;29.60;14.97;;;;;;;-3.30;99.64;95621.81;5026325;28;20202;-78
2022/03/12 04:21:17;;;;;;;29.13;14.80;;;;;;;-3.39;100.00;95625.00;5023950;28;20282;-79
2022/03/12 04:23:46;;;;;;;23.60;14.23;;;;;;;-3.45;99.06;95631.31;5024367;28;20302;-76
2022/03/12 04:26:16;;;;;;;21.10;12.83;;;;;;;-3.54;100.00;95630.25;5027671;28;20202;-78
2022/03/12 04:28:46;;;;;;;24.00;13.30;;;;;;;-3.51;100.00;95627.50;5016985;28;20695;-79
2022/03/12 04:31:14;;;;;;;21.57;12.90;;;;;;;-3.38;100.00;95627.44;5020210;28;20207;-79
2022/03/12 04:33:42;;;;;;;23.10;13.07;;;;;;;-3.30;100.00;95624.34;5025655;28;20205;-78
2022/03/12 04:36:12;;;;;;;22.87;12.53;;;;;;;-3.11;100.00;95648.31;5026287;28;20203;-79
2022/03/12 04:38:41;;;;;;;21.47;12.20;;;;;;;-3.05;100.00;95640.25;5022563;28;20576;-78
2022/03/12 04:41:12;;;;;;;21.87;12.30;;;;;;;-3.01;100.00;95641.66;5032218;28;20210;-78
2022/03/12 04:43:40;;;;;;;19.30;11.70;;;;;;;-2.92;100.00;95640.19;5018341;28;20318;-78
2022/03/12 04:46:11;;;;;;;28.70;16.77;;;;;;;-2.86;99.61;95652.44;5021105;28;20234;-79
2022/03/12 04:48:38;;;;;;;33.57;16.40;;;;;;;-2.84;99.12;95654.88;5020198;28;20748;-79
2022/03/12 04:51:08;;;;;;;39.93;18.20;;;;;;;-2.84;98.91;95662.50;5016197;28;20250;-79
2022/03/12 04:53:36;;;;;;;53.50;20.60;;;;;;;-2.81;98.66;95663.09;5023760;28;20214;-79
2022/03/12 04:56:05;;;;;;;51.20;22.93;;;;;;;-2.78;98.22;95656.97;5023644;28;20262;-79
2022/03/12 04:58:33;;;;;;;43.37;18.33;;;;;;;-2.81;96.33;95664.81;5024484;28;20273;-79
2022/03/12 05:01:03;;;;;;;34.73;16.37;;;;;;;-2.96;96.44;95651.47;5035596;28;20206;-79
2022/03/12 05:03:33;;;;;;;39.17;18.43;;;;;;;-2.83;95.91;95664.94;5030301;28;20657;-79
2022/03/12 05:06:03;;;;;;;50.73;23.43;;;;;;;-2.85;96.32;95669.31;5027608;28;20651;-79
2022/03/12 05:08:36;;;;;;;52.90;26.80;;;;;;;-2.84;95.55;95675.22;5024489;28;20732;-80
2022/03/12 05:11:05;;;;;;;60.77;31.20;;;;;;;-2.95;96.06;95678.53;5022180;28;20199;-80
2022/03/12 05:13:34;;;;;;;57.00;27.23;;;;;;;-2.86;95.35;95686.28;5029969;28;20199;-79
2022/03/12 05:16:05;;;;;;;55.30;25.83;;;;;;;-2.82;94.85;95675.91;5026167;28;20251;-79
2022/03/12 05:18:36;;;;;;;46.20;25.03;;;;;;;-2.84;94.52;95686.19;5031768;28;20673;-79
2022/03/12 05:21:05;;;;;;;41.20;21.53;;;;;;;-2.89;93.79;95688.25;5022969;28;20198;-80
2022/03/12 05:23:34;;;;;;;34.07;17.70;;;;;;;-2.95;93.79;95692.06;5016004;28;20213;-79
2022/03/12 05:26:02;;;;;;;33.67;16.20;;;;;;;-3.02;94.53;95695.13;5017386;28;20199;-78
2022/03/12 05:28:32;;;;;;;34.63;16.20;;;;;;;-3.03;94.02;95698.63;5019870;28;20298;-79
2022/03/12 05:31:04;;;;;;;30.00;16.40;;;;;;;-2.98;93.85;95699.91;5020047;28;20206;-77
2022/03/12 05:33:35;;;;;;;32.47;17.47;;;;;;;-2.98;93.93;95705.00;5020735;28;20223;-79
2022/03/12 05:36:03;;;;;;;48.27;23.53;;;;;;;-2.96;93.42;95707.41;5021336;28;20322;-79
2022/03/12 05:38:36;;;;;;;52.67;25.63;;;;;;;-2.96;93.96;95707.41;5025178;28;20231;-79
2022/03/12 05:41:10;;;;;;;65.03;31.27;;;;;;;-3.27;94.20;95707.97;5019923;28;20875;-79
2022/03/12 05:43:44;;;;;;;48.97;25.30;;;;;;;-3.66;95.51;95714.91;5018940;28;20203;-81
2022/03/12 05:46:15;;;;;;;56.03;27.63;;;;;;;-3.97;98.05;95717.91;5018571;28;20206;-80
2022/03/12 05:48:46;;;;;;;52.23;26.70;;;;;;;-4.01;100.00;95719.84;5019331;28;20195;-79
2022/03/12 05:51:14;;;;;;;50.20;24.27;;;;;;;-3.86;100.00;95722.25;5018797;28;20236;-81
2022/03/12 05:53:44;;;;;;;64.07;27.90;;;;;;;-3.63;100.00;95727.38;5024482;28;20194;-78
2022/03/12 05:56:11;;;;;;;66.63;27.37;;;;;;;-3.53;100.00;95723.31;5027412;28;20234;-80
2022/03/12 05:58:40;;;;;;;71.23;29.60;;;;;;;-3.38;99.51;95723.97;5022934;28;20199;-81
2022/03/12 06:01:08;;;;;;;78.00;30.27;;;;;;;-3.22;98.55;95731.31;5018515;28;20669;-78
2022/03/12 06:03:37;;;;;;;63.50;28.90;;;;;;;-3.26;97.80;95728.19;5021411;28;20202;-79
2022/03/12 06:06:08;;;;;;;69.37;27.43;;;;;;;-3.11;97.60;95741.53;5028490;28;20661;-80
2022/03/12 06:08:39;;;;;;;54.93;24.53;;;;;;;-2.99;96.85;95733.03;5024053;28;20245;-81
2022/03/12 06:11:10;;;;;;;59.03;24.37;;;;;;;-2.88;96.51;95746.63;5026927;28;20721;-79
2022/03/12 06:13:39;;;;;;;48.30;22.47;;;;;;;-2.85;95.56;95743.03;5021539;28;20257;-81
2022/03/12 06:16:08;;;;;;;37.00;19.60;;;;;;;-2.75;94.36;95750.84;5025812;28;20194;-80
2022/03/12 06:18:38;;;;;;;37.83;19.63;;;;;;;-2.72;92.77;95753.97;5027687;28;20263;-79
2022/03/12 06:21:10;;;;;;;36.70;19.20;;;;;;;-2.70;92.90;95758.94;5026358;28;20199;-80
2022/03/12 06:23:46;;;;;;;37.93;18.47;;;;;;;-2.66;92.32;95765.44;5024901;28;20206;-78
2022/03/12 06:26:14;;;;;;;36.67;18.80;;;;;;;-2.64;92.51;95764.41;5028578;28;20198;-79
2022/03/12 06:28:43;;;;;;;31.40;16.27;;;;;;;-2.60;91.03;95759.91;5021374;28;20378;-80
2022/03/12 06:31:12;;;;;;;33.17;17.13;;;;;;;-2.48;90.54;95775.06;5030018;28;20277;-79
2022/03/12 06:33:41;;;;;;;30.30;16.70;;;;;;;-2.46;89.95;95769.91;5026064;28;20214;-81
2022/03/12 06:36:12;;;;;;;30.57;17.60;;;;;;;-2.48;89.01;95770.00;5030697;28;20657;-80
2022/03/12 06:38:41;;;;;;;30.37;16.63;;;;;;;-2.37;87.39;95776.88;5019543;28;20191;-79
2022/03/12 06:41:09;;;;;;;31.17;16.70;;;;;;;-2.40;87.43;95780.44;5023568;28;20201;-79
2022/03/12 06:43:42;;;;;;;29.83;16.63;;;;;;;-2.39;86.99;95779.50;5027740;28;20198;-80
2022/03/12 06:46:14;;;;;;;35.73;18.57;;;;;;;-2.36;86.92;95786.91;5028736;28;20226;-79
2022/03/12 06:48:44;;;;;;;35.40;19.60;;;;;;;-2.32;86.74;95798.50;5029053;28;20290;-81
2022/03/12 06:51:13;;;;;;;36.73;19.60;;;;;;;-2.23;86.86;95799.56;5022442;28;20282;-78
2022/03/12 06:53:42;;;;;;;36.30;18.00;;;;;;;-2.16;85.50;95797.38;5024549;28;20221;-78
2022/03/12 06:56:10;;;;;;;32.33;17.07;;;;;;;-2.09;83.36;95793.47;5026194;28;20226;-78
2022/03/12 06:58:38;;;;;;;24.10;13.53;;;;;;;-2.21;80.55;95796.91;5022740;28;20268;-78
2022/03/12 07:01:07;;;;;;;21.07;11.87;;;;;;;-2.44;76.16;95801.94;5022315;28;20203;-78
2022/03/12 07:03:37;;;;;;;22.00;11.80;;;;;;;-2.64;76.34;95806.81;5020278;28;20222;-71
2022/03/12 07:06:04;;;;;;;17.47;9.90;;;;;;;-2.66;78.53;95803.59;5011780;28;20230;-72
2022/03/12 07:08:35;;;;;;;17.77;9.87;;;;;;;-2.56;74.43;95805.34;5017766;28;20665;-73
2022/03/12 07:11:04;;;;;;;20.27;10.67;;;;;;;-2.39;75.57;95816.84;5014317;28;20196;-72
2022/03/12 07:13:32;;;;;;;19.93;10.27;;;;;;;-2.12;74.88;95814.06;5020514;28;20666;-72
2022/03/12 07:16:00;;;;;;;16.60;9.97;;;;;;;-1.88;71.58;95818.16;5028754;28;20237;-72
2022/03/12 07:18:28;;;;;;;14.70;9.07;;;;;;;-1.66;69.88;95827.56;5027706;28;20224;-73
2022/03/12 07:20:56;;;;;;;14.87;8.63;;;;;;;-1.47;66.45;95829.56;5024195;28;20199;-72
2022/03/12 07:23:25;;;;;;;13.77;8.60;;;;;;;-1.41;65.14;95831.59;5026195;28;20285;-72
2022/03/12 07:25:55;;;;;;;11.97;7.37;;;;;;;-1.26;62.37;95833.00;5026600;28;20314;-73
2022/03/12 07:28:23;;;;;;;14.37;8.17;;;;;;;-1.41;59.91;95839.25;5024183;28;20202;-73
2022/03/12 07:30:51;;;;;;;16.93;9.20;;;;;;;-1.38;60.39;95832.19;5025108;28;20857;-72
2022/03/12 07:33:19;;;;;;;18.27;9.93;;;;;;;-1.30;61.86;95845.16;5026825;28;20233;-72
2022/03/12 07:35:46;;;;;;;13.80;8.77;;;;;;;-1.36;61.66;95850.75;5026048;28;20304;-72
2022/03/12 07:38:14;;;;;;;15.03;9.47;;;;;;;-1.39;60.40;95843.34;5023975;28;20199;-72
2022/03/12 07:40:42;;;;;;;15.00;8.77;;;;;;;-1.34;61.42;95850.63;5019642;28;20260;-72
2022/03/12 07:43:12;;;;;;;17.20;8.90;;;;;;;-1.23;60.43;95856.53;5018315;28;20203;-73
2022/03/12 07:45:40;;;;;;;17.87;9.23;;;;;;;-1.19;59.40;95847.72;5024020;28;20223;-73
2022/03/12 07:48:08;;;;;;;12.10;7.63;;;;;;;-1.08;57.76;95848.63;5019999;28;20235;-72
2022/03/12 07:50:36;;;;;;;13.83;8.20;;;;;;;-1.20;56.38;95853.75;5023590;28;20234;-72
2022/03/12 07:53:04;;;;;;;17.80;8.27;;;;;;;-1.35;54.33;95854.09;5022982;28;20203;-73
2022/03/12 07:55:32;;;;;;;12.27;7.37;;;;;;;-1.40;54.16;95853.63;5024695;28;20331;-72
2022/03/12 07:58:00;;;;;;;14.00;6.83;;;;;;;-1.28;53.51;95852.72;5021833;28;20201;-72
2022/03/12 08:00:31;;;;;;;10.33;6.60;;;;;;;-1.34;52.08;95856.53;5023222;28;20229;-72
2022/03/12 08:05:56;;;;;;;12.27;7.40;;;;;;;-1.19;54.20;95857.94;5020414;28;20288;-72
2022/03/12 08:08:37;;;;;;;11.27;6.83;;;;;;;-1.22;53.11;95863.25;5019484;28;20876;-73
2022/03/12 08:13:51;;;;;;;10.07;6.60;;;;;;;-1.25;52.54;95862.69;5018932;28;20681;-73
2022/03/12 08:16:20;;;;;;;12.27;6.90;;;;;;;-1.19;53.31;95862.22;5020807;28;20208;-73
2022/03/12 08:18:49;;;;;;;9.77;6.50;;;;;;;-1.05;52.01;95859.41;5021705;28;20261;-72
2022/03/12 08:21:16;;;;;;;10.93;6.60;;;;;;;-0.94;51.88;95864.50;5021769;28;20199;-73
2022/03/12 08:23:45;;;;;;;11.73;6.90;;;;;;;-0.87;51.06;95855.47;5022300;28;20295;-74
2022/03/12 08:26:13;;;;;;;9.97;6.07;;;;;;;-0.70;50.99;95862.63;5023565;28;20572;-73
2022/03/12 08:28:41;;;;;;;9.77;6.10;;;;;;;-0.49;50.77;95867.75;5022493;28;20195;-74
2022/03/12 08:31:09;;;;;;;11.80;6.80;;;;;;;-0.49;51.32;95862.66;5022564;28;20214;-72
2022/03/12 08:33:38;;;;;;;10.67;6.80;;;;;;;-0.31;52.37;95861.22;5019482;28;20572;-73
2022/03/12 08:36:07;;;;;;;10.23;6.57;;;;;;;-0.11;51.27;95863.00;5021965;28;20294;-72
2022/03/12 08:38:36;;;;;;;12.07;6.93;;;;;;;0.14;50.60;95869.50;5022008;28;20203;-74
2022/03/12 08:41:05;;;;;;;15.83;8.57;;;;;;;0.40;52.56;95859.72;5019447;28;20207;-73
2022/03/12 08:43:33;;;;;;;12.97;7.33;;;;;;;0.57;49.20;95871.91;5022680;28;20199;-72
2022/03/12 08:46:05;;;;;;;10.87;6.90;;;;;;;0.63;47.93;95860.34;5023266;28;20219;-77
2022/03/12 08:48:32;;;;;;;10.67;6.57;;;;;;;0.69;46.79;95870.91;5029157;28;20943;-76
2022/03/12 08:51:05;;;;;;;11.40;6.00;;;;;;;0.74;45.55;95862.84;5022845;28;20669;-76
2022/03/12 08:53:33;;;;;;;10.37;6.53;;;;;;;0.80;45.92;95860.56;5023134;28;20194;-79
2022/03/12 08:56:02;;;;;;;11.10;6.70;;;;;;;0.88;46.96;95862.47;5020782;28;20309;-73
2022/03/12 08:58:34;;;;;;;9.77;6.73;;;;;;;0.71;46.11;95865.63;5020267;28;20200;-72
2022/03/12 09:01:06;;;;;;;11.53;6.53;;;;;;;0.25;47.06;95866.88;5019416;28;20195;-75
2022/03/12 09:03:34;;;;;;;13.10;7.33;;;;;;;0.12;47.38;95860.31;5018591;28;20285;-73
2022/03/12 09:06:07;;;;;;;13.03;6.80;;;;;;;-0.23;46.03;95863.19;5020381;28;20704;-72
2022/03/12 09:08:36;;;;;;;11.23;6.80;;;;;;;-0.25;47.34;95865.84;5022764;28;20196;-71
2022/03/12 09:11:06;;;;;;;10.80;6.90;;;;;;;-0.03;48.64;95863.19;5019843;28;20214;-74
2022/03/12 09:13:35;;;;;;;13.17;6.93;;;;;;;0.19;46.81;95864.00;5029066;28;20638;-73
2022/03/12 09:16:05;;;;;;;11.70;6.83;;;;;;;0.48;47.26;95863.25;5020010;28;20640;-72
2022/03/12 09:18:32;;;;;;;14.87;6.90;;;;;;;0.66;46.78;95867.78;5022688;28;20640;-72
2022/03/12 09:21:00;;;;;;;14.60;7.10;;;;;;;0.83;46.41;95873.13;5020604;28;20226;-75
2022/03/12 09:23:30;;;;;;;13.73;6.90;;;;;;;0.82;45.68;95865.56;5021079;28;20195;-76
2022/03/12 09:25:59;;;;;;;10.53;6.73;;;;;;;1.37;44.77;95869.38;5021541;28;20253;-72
2022/03/12 09:28:28;;;;;;;13.80;8.17;;;;;;;1.44;45.21;95870.47;5019817;28;20208;-74
2022/03/12 09:30:56;;;;;;;14.93;8.67;;;;;;;1.73;45.97;95869.53;5020933;28;20628;-76
2022/03/12 09:33:25;;;;;;;12.43;7.50;;;;;;;1.79;44.21;95873.31;5023088;28;20658;-73
2022/03/12 09:35:54;;;;;;;12.77;7.00;;;;;;;1.95;44.33;95878.75;5022662;28;20251;-71
2022/03/12 09:38:22;;;;;;;13.83;7.53;;;;;;;1.84;44.66;95876.31;5019070;28;20198;-72
2022/03/12 09:40:52;;;;;;;12.00;6.73;;;;;;;1.86;43.80;95879.53;5020802;28;20694;-73
2022/03/12 09:43:22;;;;;;;11.60;6.53;;;;;;;1.80;43.26;95869.81;5022929;28;20669;-72
2022/03/12 09:45:53;;;;;;;10.10;6.00;;;;;;;1.96;43.53;95870.13;5025543;28;20230;-72
2022/03/12 09:48:21;;;;;;;9.87;6.00;;;;;;;2.52;40.42;95866.78;5020968;28;20279;-74
2022/03/12 09:50:51;;;;;;;9.27;5.77;;;;;;;2.65;39.98;95857.06;5019972;28;20558;-73
2022/03/12 09:53:20;;;;;;;9.40;6.23;;;;;;;2.72;39.30;95858.91;5020648;28;20237;-74
2022/03/12 09:55:48;;;;;;;11.47;7.03;;;;;;;2.38;40.58;95859.53;5020922;28;20657;-74
2022/03/12 09:58:18;;;;;;;11.33;6.30;;;;;;;2.13;42.52;95863.50;5021330;28;20203;-75
2022/03/12 10:00:47;;;;;;;12.73;6.47;;;;;;;1.84;40.86;95862.69;5020146;28;20197;-73
2022/03/12 10:03:15;;;;;;;10.87;6.30;;;;;;;1.65;41.83;95860.91;5020130;28;20195;-75
2022/03/12 10:05:44;;;;;;;10.50;6.33;;;;;;;1.47;40.19;95857.41;5019372;28;20227;-74
2022/03/12 10:08:12;;;;;;;9.63;6.40;;;;;;;1.47;40.94;95858.19;5021088;28;20195;-73
2022/03/12 10:10:41;;;;;;;15.17;6.97;;;;;;;1.31;41.97;95862.22;5020293;28;20202;-73
2022/03/12 10:13:10;;;;;;;16.43;7.10;;;;;;;1.18;42.25;95854.78;5021269;28;20240;-73
2022/03/12 10:15:40;;;;;;;12.63;7.47;;;;;;;0.85;43.15;95855.88;5021186;28;20285;-73
2022/03/12 10:18:08;;;;;;;22.33;7.30;;;;;;;0.49;44.48;95857.19;5019996;28;20210;-73
2022/03/12 10:20:48;;;;;;;10.87;6.77;;;;;;;0.43;44.83;95855.13;5021367;28;20191;-73
2022/03/12 10:23:17;;;;;;;15.97;7.80;;;;;;;0.67;45.08;95847.19;5019850;28;20206;-72
2022/03/12 10:25:45;;;;;;;11.40;7.17;;;;;;;0.89;45.49;95844.47;5018358;28;20215;-73
2022/03/12 10:28:14;;;;;;;12.53;7.67;;;;;;;1.09;45.48;95837.66;5020297;28;20258;-72
2022/03/12 10:30:44;;;;;;;17.30;7.00;;;;;;;1.26;43.77;95843.88;5020320;28;20202;-72
2022/03/12 10:33:22;;;;;;;15.13;7.23;;;;;;;1.45;44.32;95846.47;5022061;28;20205;-73
2022/03/12 10:35:50;;;;;;;12.33;6.70;;;;;;;1.41;44.40;95832.31;5019237;28;20198;-74
2022/03/12 10:38:22;;;;;;;10.90;6.97;;;;;;;1.46;44.83;95837.84;5019731;28;20206;-74
2022/03/12 10:40:50;;;;;;;14.57;6.97;;;;;;;1.46;43.20;95843.78;5020215;28;20639;-73
2022/03/12 10:43:18;;;;;;;11.70;6.90;;;;;;;1.52;42.51;95853.50;5020802;28;20288;-72
2022/03/12 10:45:50;;;;;;;13.47;7.53;;;;;;;1.47;43.95;95852.28;5016589;28;20248;-73
2022/03/12 10:48:21;;;;;;;14.73;7.70;;;;;;;1.28;43.15;95841.97;5022944;28;20201;-74
2022/03/12 10:50:51;;;;;;;12.63;7.50;;;;;;;1.34;44.63;95846.59;5025964;28;20204;-73
2022/03/12 10:53:19;;;;;;;14.13;7.47;;;;;;;1.50;45.19;95844.34;5026602;28;20193;-72
2022/03/12 10:55:50;;;;;;;14.30;7.30;;;;;;;1.60;45.01;95843.38;5026222;28;20224;-73
2022/03/12 10:58:24;;;;;;;15.53;7.37;;;;;;;1.82;44.51;95838.97;5026216;28;20201;-74
2022/03/12 11:00:55;;;;;;;16.77;8.07;;;;;;;1.96;42.85;95839.38;5026797;28;20194;-73
2022/03/12 11:03:25;;;;;;;15.10;8.00;;;;;;;2.03;41.94;95839.59;5030180;28;20291;-73
2022/03/12 11:05:55;;;;;;;14.40;6.27;;;;;;;2.32;43.04;95829.31;5025747;28;20685;-73
2022/03/12 11:08:25;;;;;;;12.50;6.50;;;;;;;2.65;40.58;95833.97;5028522;28;20251;-73
2022/03/12 11:10:58;;;;;;;9.93;6.60;;;;;;;3.05;38.91;95820.81;5025738;28;20213;-72
2022/03/12 11:13:40;;;;;;;10.23;6.87;;;;;;;3.71;38.64;95818.78;5024903;28;20298;-73
2022/03/12 11:16:21;;;;;;;12.53;7.27;;;;;;;4.25;37.67;95823.72;5027015;28;20222;-73
2022/03/12 11:19:07;;;;;;;11.87;6.87;;;;;;;4.71;38.00;95822.53;5027713;28;20670;-75
2022/03/12 11:21:37;;;;;;;9.90;6.40;;;;;;;5.18;35.76;95822.94;5026475;28;20202;-73
2022/03/12 11:24:09;;;;;;;11.67;7.23;;;;;;;5.93;35.24;95814.25;5022184;28;20265;-72
2022/03/12 11:26:48;;;;;;;14.13;7.40;;;;;;;6.61;35.36;95816.47;5023084;28;20222;-73
2022/03/12 11:29:18;;;;;;;11.10;5.87;;;;;;;6.47;34.03;95801.63;5026520;28;20216;-73
2022/03/12 11:31:50;;;;;;;12.03;6.63;;;;;;;5.62;33.95;95814.03;5026296;28;20315;-72
2022/03/12 11:34:24;;;;;;;8.60;5.80;;;;;;;4.90;35.95;95798.34;5028587;28;20207;-72
2022/03/12 11:37:04;;;;;;;11.70;6.73;;;;;;;4.33;36.95;95798.03;5028027;28;20198;-72
2022/03/12 11:39:34;;;;;;;11.00;6.93;;;;;;;3.97;37.86;95802.47;5025581;28;20213;-73